Time;durP1;ratioP1;P1;durP2;ratioP2;P2;SDS_P1;SDS_P2;PMS_P1;PMS_P2;Temp;Humidity;BMP_temperature;BMP_pressure;BME280_temperature;BME280_humidity;BME280_pressure;Samples;Min_cycle;Max_cycle;Signal;HPM_P1;HPM_P2
2021/05/01 00:00:51;;;;;;;15.55;14.02;;;10.80;84.80;;;;;;5035100;28;20042;-61
2021/05/01 00:03:17;;;;;;;15.77;14.20;;;10.80;85.10;;;;;;5033794;28;20447;-60
2021/05/01 00:05:42;;;;;;;15.07;13.52;;;10.80;85.00;;;;;;5034272;28;20124;-59
2021/05/01 00:08:08;;;;;;;16.48;14.77;;;10.80;85.00;;;;;;5033261;28;20060;-60
2021/05/01 00:10:33;;;;;;;15.27;13.68;;;10.80;85.20;;;;;;5033289;28;20041;-61
2021/05/01 00:12:59;;;;;;;15.27;13.77;;;10.90;85.30;;;;;;5032107;28;20033;-59
2021/05/01 00:15:25;;;;;;;16.15;14.43;;;10.80;85.40;;;;;;5034579;28;20025;-61
2021/05/01 00:17:50;;;;;;;16.92;15.23;;;10.80;85.20;;;;;;5032903;28;20390;-62
2021/05/01 00:20:16;;;;;;;15.80;14.23;;;10.80;85.40;;;;;;5035197;28;20413;-60
2021/05/01 00:22:41;;;;;;;15.50;13.98;;;10.80;85.60;;;;;;5033347;28;20111;-59
2021/05/01 00:25:07;;;;;;;16.60;14.63;;;10.70;85.80;;;;;;5034331;28;20033;-59
2021/05/01 00:27:33;;;;;;;16.45;14.85;;;10.80;85.80;;;;;;5033173;28;20099;-57
2021/05/01 00:29:58;;;;;;;17.02;15.32;;;10.70;85.60;;;;;;5032462;28;20473;-60
2021/05/01 00:32:24;;;;;;;16.55;14.85;;;10.70;85.10;;;;;;5026412;28;20034;-60
2021/05/01 00:34:50;;;;;;;17.48;15.68;;;10.70;85.30;;;;;;5033714;28;20061;-58
2021/05/01 00:37:15;;;;;;;17.10;15.30;;;10.70;85.10;;;;;;5033209;28;20037;-58
2021/05/01 00:39:41;;;;;;;15.85;14.25;;;10.70;84.60;;;;;;5034704;28;20036;-60
2021/05/01 00:42:06;;;;;;;19.00;16.83;;;10.60;84.00;;;;;;5032745;28;20037;-61
2021/05/01 00:44:32;;;;;;;16.30;14.60;;;10.60;83.70;;;;;;5035434;28;20048;-59
2021/05/01 00:46:57;;;;;;;17.63;15.75;;;10.60;83.60;;;;;;5033077;28;20428;-61
2021/05/01 00:49:23;;;;;;;21.17;18.38;;;10.60;83.90;;;;;;5033841;28;20117;-62
2021/05/01 00:51:48;;;;;;;20.83;18.63;;;10.50;83.00;;;;;;5034773;28;20075;-61
2021/05/01 00:54:14;;;;;;;21.60;19.17;;;10.40;82.90;;;;;;5033046;28;20068;-61
2021/05/01 00:56:41;;;;;;;20.27;18.27;;;10.40;83.00;;;;;;5031837;28;20095;-59
2021/05/01 00:59:06;;;;;;;20.77;18.45;;;10.30;83.00;;;;;;5034745;28;20064;-60
2021/05/01 01:01:32;;;;;;;19.73;17.73;;;10.40;82.90;;;;;;5039518;28;20048;-61
2021/05/01 01:03:57;;;;;;;21.23;18.45;;;10.40;82.80;;;;;;5031178;28;20485;-61
2021/05/01 01:06:23;;;;;;;19.83;17.77;;;10.40;82.60;;;;;;5034939;28;20037;-61
2021/05/01 01:08:49;;;;;;;20.85;18.75;;;10.50;82.50;;;;;;5032163;28;20083;-59
2021/05/01 01:11:14;;;;;;;20.50;18.50;;;10.50;82.50;;;;;;5034685;28;20053;-60
2021/05/01 01:13:40;;;;;;;19.48;17.48;;;10.40;82.40;;;;;;5032198;28;20025;-58
2021/05/01 01:16:06;;;;;;;20.17;18.08;;;10.40;82.60;;;;;;5033515;28;20052;-59
2021/05/01 01:18:32;;;;;;;18.95;16.98;;;10.40;82.60;;;;;;5032070;28;20018;-59
2021/05/01 01:21:00;;;;;;;19.00;17.15;;;10.40;82.60;;;;;;5032403;28;20496;-59
2021/05/01 01:23:26;;;;;;;18.90;17.00;;;10.40;82.70;;;;;;5031905;28;20120;-59
2021/05/01 01:25:52;;;;;;;19.05;17.02;;;10.40;82.80;;;;;;5032369;28;20034;-57
2021/05/01 01:28:18;;;;;;;18.63;16.70;;;10.40;82.90;;;;;;5033647;28;20029;-60
2021/05/01 01:30:44;;;;;;;18.25;16.38;;;10.40;83.00;;;;;;5033322;28;20075;-61
2021/05/01 01:33:11;;;;;;;17.85;16.05;;;10.40;82.80;;;;;;5034336;28;20060;-58
2021/05/01 01:35:37;;;;;;;19.23;17.25;;;10.40;83.00;;;;;;5051299;28;20033;-61
2021/05/01 01:38:05;;;;;;;17.77;15.85;;;10.30;83.00;;;;;;5050351;28;20033;-58
2021/05/01 01:40:31;;;;;;;18.50;16.63;;;10.30;83.10;;;;;;5031355;28;20039;-60
2021/05/01 01:42:58;;;;;;;18.63;16.77;;;10.30;83.30;;;;;;5032651;28;20034;-62
2021/05/01 01:45:29;;;;;;;18.52;16.50;;;10.30;83.20;;;;;;5051938;28;20033;-61
2021/05/01 01:47:57;;;;;;;17.20;15.48;;;10.30;83.20;;;;;;5052653;28;20492;-59
2021/05/01 01:50:24;;;;;;;17.58;15.75;;;10.30;83.20;;;;;;5050871;28;20067;-61
2021/05/01 01:52:50;;;;;;;18.90;15.60;;;10.30;83.30;;;;;;5052498;28;20108;-58
2021/05/01 01:55:18;;;;;;;17.98;16.15;;;10.30;83.30;;;;;;5035139;28;20489;-60
2021/05/01 01:57:44;;;;;;;16.83;15.10;;;10.30;83.20;;;;;;5032518;28;20091;-59
2021/05/01 02:00:19;;;;;;;18.65;16.80;;;10.30;83.30;;;;;;5038828;28;20041;-59
2021/05/01 02:02:45;;;;;;;;;;;10.30;83.10;;;;;;5032613;28;20033;-61
2021/05/01 02:05:11;;;;;;;16.58;14.88;;;10.40;83.10;;;;;;5033624;28;19908;-61
2021/05/01 02:07:37;;;;;;;17.63;15.82;;;10.40;83.20;;;;;;5031977;28;20032;-61
2021/05/01 02:10:06;;;;;;;16.73;15.02;;;10.40;83.00;;;;;;5044369;28;20029;-61
2021/05/01 02:12:37;;;;;;;16.13;14.40;;;10.40;83.00;;;;;;5052109;28;20040;-61
2021/05/01 02:15:24;;;;;;;16.33;14.63;;;10.40;83.10;;;;;;5038601;28;20102;-61
2021/05/01 02:17:52;;;;;;;16.35;14.65;;;10.40;83.10;;;;;;5031835;28;20034;-61
2021/05/01 02:20:34;;;;;;;15.93;14.35;;;10.40;83.30;;;;;;5046506;28;20554;-59
2021/05/01 02:23:00;;;;;;;16.98;15.18;;;10.50;83.30;;;;;;5012521;28;20505;-60
2021/05/01 02:25:26;;;;;;;16.73;14.98;;;10.40;83.40;;;;;;5032784;28;20397;-59
2021/05/01 02:27:52;;;;;;;16.15;14.45;;;10.40;83.50;;;;;;5031466;28;20025;-61
2021/05/01 02:30:21;;;;;;;16.08;14.48;;;10.40;83.50;;;;;;5046258;28;20086;-60
2021/05/01 02:32:47;;;;;;;16.45;14.82;;;10.30;83.40;;;;;;5052014;28;20025;-61
2021/05/01 02:35:16;;;;;;;16.38;14.77;;;10.40;83.50;;;;;;5039520;28;20044;-59
2021/05/01 02:37:42;;;;;;;16.70;14.98;;;10.40;83.60;;;;;;5034699;28;20075;-59
2021/05/01 02:40:10;;;;;;;17.20;14.98;;;10.40;83.80;;;;;;5036423;28;20048;-61
2021/05/01 02:42:37;;;;;;;16.73;15.05;;;10.40;84.00;;;;;;5035701;28;20060;-60
2021/05/01 02:45:07;;;;;;;17.40;15.57;;;10.40;84.10;;;;;;5044695;28;20044;-60
2021/05/01 02:47:33;;;;;;;16.40;14.80;;;10.50;84.10;;;;;;5055844;28;20029;-58
2021/05/01 02:49:59;;;;;;;17.63;15.82;;;10.50;83.90;;;;;;5046777;28;20045;-54
2021/05/01 02:52:24;;;;;;;18.45;16.67;;;10.50;83.70;;;;;;5034557;28;20038;-58
2021/05/01 02:54:50;;;;;;;18.08;16.27;;;10.40;83.50;;;;;;5036749;28;20025;-59
2021/05/01 02:57:16;;;;;;;18.45;16.55;;;10.40;83.60;;;;;;5034462;28;20107;-60
2021/05/01 02:59:41;;;;;;;17.52;15.82;;;10.20;83.80;;;;;;5035360;28;20061;-59
2021/05/01 03:02:07;;;;;;;18.33;16.33;;;10.10;84.30;;;;;;5035491;28;20381;-58
2021/05/01 03:04:32;;;;;;;18.58;16.73;;;10.10;84.60;;;;;;5039303;28;20111;-56
2021/05/01 03:06:58;;;;;;;18.13;16.23;;;10.00;84.70;;;;;;5054671;28;20112;-59
2021/05/01 03:09:24;;;;;;;17.67;15.90;;;10.00;84.90;;;;;;5053466;28;20477;-59
2021/05/01 03:11:49;;;;;;;18.27;16.38;;;10.00;84.90;;;;;;5054397;28;20542;-59
2021/05/01 03:14:15;;;;;;;16.95;15.15;;;10.10;85.00;;;;;;5052825;28;20036;-60
2021/05/01 03:16:41;;;;;;;16.95;15.25;;;10.00;84.80;;;;;;5055205;28;20037;-60
2021/05/01 03:19:06;;;;;;;17.80;16.00;;;10.10;84.70;;;;;;5055670;28;20033;-58
2021/05/01 03:21:32;;;;;;;18.38;16.08;;;10.10;84.70;;;;;;5035699;28;20400;-59
2021/05/01 03:23:59;;;;;;;16.65;14.95;;;10.00;84.70;;;;;;5034626;28;20393;-61
2021/05/01 03:26:25;;;;;;;17.73;15.90;;;10.00;85.10;;;;;;5052198;28;20137;-61
2021/05/01 03:28:50;;;;;;;17.90;16.02;;;10.00;85.10;;;;;;5039422;28;20124;-59
2021/05/01 03:31:16;;;;;;;17.65;15.60;;;10.00;85.10;;;;;;5035324;28;20036;-59
2021/05/01 03:33:42;;;;;;;19.90;17.83;;;10.00;85.10;;;;;;5035211;28;20033;-61
2021/05/01 03:36:08;;;;;;;42.45;30.33;;;10.00;85.60;;;;;;5048301;28;20044;-61
2021/05/01 03:38:35;;;;;;;50.97;34.33;;;10.00;85.90;;;;;;5052834;28;20052;-61
2021/05/01 03:41:01;;;;;;;30.85;22.50;;;10.10;85.90;;;;;;5053960;28;20450;-59
2021/05/01 03:43:27;;;;;;;22.73;19.08;;;10.10;85.30;;;;;;5054187;28;20037;-61
2021/05/01 03:45:53;;;;;;;17.58;15.50;;;10.10;85.30;;;;;;5052903;28;20145;-57
2021/05/01 03:48:19;;;;;;;17.30;15.60;;;10.10;85.40;;;;;;5053664;28;20025;-60
2021/05/01 03:50:45;;;;;;;18.55;16.05;;;10.00;85.40;;;;;;5045324;28;20041;-60
2021/05/01 03:53:10;;;;;;;16.48;14.80;;;10.00;85.50;;;;;;5034768;28;20512;-58
2021/05/01 03:55:36;;;;;;;17.60;15.80;;;10.00;85.30;;;;;;5041653;28;20075;-55
2021/05/01 03:58:02;;;;;;;17.30;15.57;;;10.00;85.80;;;;;;5045643;28;20036;-59
2021/05/01 04:00:28;;;;;;;17.30;15.57;;;10.10;85.20;;;;;;5034453;28;20481;-59
2021/05/01 04:02:53;;;;;;;58.67;40.30;;;10.10;85.10;;;;;;5034467;28;20036;-60
2021/05/01 04:05:20;;;;;;;36.13;25.98;;;10.10;85.10;;;;;;5037743;28;20108;-59
2021/05/01 04:07:45;;;;;;;20.25;17.45;;;10.10;85.00;;;;;;5054026;28;20072;-61
2021/05/01 04:10:12;;;;;;;17.27;15.50;;;10.10;85.10;;;;;;5052453;28;20180;-59
2021/05/01 04:12:37;;;;;;;15.70;14.20;;;10.10;85.10;;;;;;5053738;28;20049;-60
2021/05/01 04:15:04;;;;;;;16.85;15.25;;;10.10;85.10;;;;;;5045211;28;20038;-61
2021/05/01 04:17:30;;;;;;;16.42;14.73;;;10.10;85.20;;;;;;5054182;28;20029;-59
2021/05/01 04:19:55;;;;;;;16.90;14.93;;;10.10;85.10;;;;;;5053601;28;20480;-59
2021/05/01 04:22:21;;;;;;;17.90;16.00;;;10.10;85.10;;;;;;5033759;28;20448;-57
2021/05/01 04:24:47;;;;;;;17.35;15.55;;;10.10;85.00;;;;;;5034369;28;20432;-59
2021/05/01 04:27:13;;;;;;;17.52;15.70;;;10.00;85.40;;;;;;5034651;28;20061;-58
2021/05/01 04:29:38;;;;;;;19.00;15.98;;;10.00;85.30;;;;;;5034093;28;20033;-60
2021/05/01 04:32:04;;;;;;;18.98;17.05;;;10.00;85.40;;;;;;5048978;28;20047;-62
2021/05/01 04:34:30;;;;;;;18.92;15.70;;;10.00;85.60;;;;;;5053930;28;20075;-60
2021/05/01 04:36:55;;;;;;;16.73;15.02;;;9.90;85.90;;;;;;5038795;28;20048;-60
2021/05/01 04:39:21;;;;;;;16.92;15.13;;;9.80;86.20;;;;;;5032339;28;20124;-60
2021/05/01 04:41:48;;;;;;;18.95;16.65;;;9.90;86.20;;;;;;5045254;28;20060;-60
2021/05/01 04:44:14;;;;;;;17.25;15.43;;;9.90;86.70;;;;;;5053808;28;20029;-61
2021/05/01 04:46:39;;;;;;;17.65;15.50;;;9.90;86.10;;;;;;5043360;28;20041;-59
2021/05/01 04:49:08;;;;;;;17.42;15.73;;;10.00;86.20;;;;;;5033570;28;20116;-58
2021/05/01 04:51:35;;;;;;;17.55;15.50;;;10.00;86.10;;;;;;5036980;28;20035;-58
2021/05/01 04:54:04;;;;;;;16.50;14.93;;;10.00;85.90;;;;;;5053184;28;20045;-59
2021/05/01 04:56:30;;;;;;;17.05;15.30;;;10.10;85.70;;;;;;5045701;28;20037;-59
2021/05/01 04:58:56;;;;;;;16.25;14.55;;;10.10;85.60;;;;;;5033290;28;20055;-59
2021/05/01 05:01:22;;;;;;;16.58;14.85;;;10.20;85.60;;;;;;5038827;28;20563;-59
2021/05/01 05:03:48;;;;;;;17.95;16.15;;;10.20;85.40;;;;;;5054726;28;20127;-58
2021/05/01 05:06:13;;;;;;;17.25;15.45;;;10.20;85.30;;;;;;5049077;28;20436;-59
2021/05/01 05:08:39;;;;;;;17.83;15.95;;;10.20;85.50;;;;;;5032739;28;20041;-62
2021/05/01 05:11:05;;;;;;;18.05;16.15;;;10.20;85.50;;;;;;5035343;28;20033;-60
2021/05/01 05:13:30;;;;;;;15.93;14.18;;;10.10;85.60;;;;;;5053637;28;20112;-60
2021/05/01 05:15:56;;;;;;;16.90;15.10;;;10.10;85.50;;;;;;5038108;28;20131;-58
2021/05/01 05:18:23;;;;;;;16.50;14.80;;;10.10;85.40;;;;;;5033546;28;20029;-58
2021/05/01 05:20:49;;;;;;;17.00;15.20;;;10.20;85.40;;;;;;5033061;28;20125;-58
2021/05/01 05:23:15;;;;;;;16.98;15.27;;;10.20;85.30;;;;;;5052928;28;20576;-60
2021/05/01 05:25:40;;;;;;;17.02;14.82;;;10.20;85.30;;;;;;5042357;28;20038;-60
2021/05/01 05:28:06;;;;;;;17.83;15.45;;;10.20;85.90;;;;;;5050139;28;20075;-59
2021/05/01 05:30:32;;;;;;;17.13;15.43;;;10.30;85.00;;;;;;5052767;28;20121;-61
2021/05/01 05:32:58;;;;;;;17.95;16.15;;;10.30;85.20;;;;;;5036847;28;20400;-60
2021/05/01 05:35:24;;;;;;;16.65;15.00;;;10.30;85.00;;;;;;5032549;28;20044;-61
2021/05/01 05:37:50;;;;;;;17.25;15.52;;;10.40;84.90;;;;;;5046397;28;20065;-61
2021/05/01 05:40:15;;;;;;;17.98;15.82;;;10.40;85.20;;;;;;5052610;28;20037;-60
2021/05/01 05:42:43;;;;;;;18.17;15.57;;;10.40;85.00;;;;;;5039335;28;20041;-59
2021/05/01 05:45:10;;;;;;;17.33;15.48;;;10.50;85.00;;;;;;5033009;28;20120;-58
2021/05/01 05:47:35;;;;;;;17.35;15.57;;;10.50;84.70;;;;;;5043130;28;20037;-57
2021/05/01 05:50:02;;;;;;;18.40;16.50;;;10.60;84.40;;;;;;5050796;28;20036;-60
2021/05/01 05:52:27;;;;;;;17.15;15.35;;;10.60;84.30;;;;;;5050363;28;20114;-58
2021/05/01 05:54:53;;;;;;;18.33;15.65;;;10.60;84.50;;;;;;5052275;28;20421;-60
2021/05/01 05:57:18;;;;;;;15.20;13.70;;;10.70;84.20;;;;;;5044254;28;20037;-61
2021/05/01 05:59:44;;;;;;;17.52;15.60;;;10.80;83.90;;;;;;5031927;28;20044;-62
2021/05/01 06:02:15;;;;;;;17.58;15.35;;;10.90;83.50;;;;;;5031680;28;20049;-59
2021/05/01 06:04:49;;;;;;;17.08;15.00;;;10.90;83.40;;;;;;5032919;28;20041;-61
2021/05/01 06:07:23;;;;;;;17.85;16.00;;;10.90;83.60;;;;;;5033647;28;20053;-62
2021/05/01 06:09:50;;;;;;;17.15;15.40;;;10.80;83.70;;;;;;5031757;28;20056;-62
2021/05/01 06:12:18;;;;;;;16.48;14.77;;;10.90;83.40;;;;;;5037919;28;20037;-60
2021/05/01 06:14:49;;;;;;;18.13;16.15;;;11.00;83.30;;;;;;5045706;28;20037;-62
2021/05/01 06:17:20;;;;;;;17.58;15.77;;;11.00;83.10;;;;;;5037077;28;20391;-60
2021/05/01 06:19:49;;;;;;;16.98;15.27;;;11.10;82.90;;;;;;5051784;28;20041;-60
2021/05/01 06:22:14;;;;;;;17.35;15.65;;;11.20;82.80;;;;;;5047169;28;20029;-60
2021/05/01 06:24:43;;;;;;;17.83;16.10;;;11.30;82.50;;;;;;5032225;28;20041;-62
2021/05/01 06:27:10;;;;;;;19.67;16.55;;;11.30;82.60;;;;;;5033113;28;20064;-63
2021/05/01 06:29:37;;;;;;;19.13;17.10;;;11.30;82.60;;;;;;5031997;28;20030;-61
2021/05/01 06:32:05;;;;;;;17.42;15.63;;;11.30;82.60;;;;;;5047338;28;20040;-61
2021/05/01 06:34:32;;;;;;;16.70;14.90;;;11.50;82.50;;;;;;5047512;28;20029;-61
2021/05/01 06:37:02;;;;;;;25.77;20.80;;;11.60;82.00;;;;;;5032404;28;20036;-62
2021/05/01 06:39:32;;;;;;;20.38;17.48;;;11.70;81.50;;;;;;5036768;28;20121;-62
2021/05/01 06:41:59;;;;;;;18.50;16.58;;;11.80;81.40;;;;;;5051032;28;20041;-62
2021/05/01 06:44:48;;;;;;;21.17;18.33;;;12.00;81.10;;;;;;5043997;28;20037;-61
2021/05/01 06:47:16;;;;;;;17.02;15.32;;;12.10;80.40;;;;;;5023368;28;20095;-60
2021/05/01 06:49:52;;;;;;;17.73;15.80;;;12.10;80.10;;;;;;5035163;28;20049;-59
2021/05/01 06:52:19;;;;;;;18.60;16.55;;;12.00;80.30;;;;;;5032096;28;20029;-61
2021/05/01 06:54:45;;;;;;;17.98;16.27;;;12.00;80.40;;;;;;5048286;28;20040;-59
2021/05/01 06:57:13;;;;;;;19.20;17.17;;;12.00;80.40;;;;;;5043670;28;20032;-58
2021/05/01 06:59:41;;;;;;;18.75;16.88;;;12.00;80.30;;;;;;5031513;28;20030;-61
2021/05/01 07:02:09;;;;;;;18.67;16.88;;;12.00;80.60;;;;;;5031107;28;20120;-62
2021/05/01 07:04:36;;;;;;;17.42;15.68;;;12.10;80.40;;;;;;5031752;28;20037;-61
2021/05/01 07:07:02;;;;;;;17.05;15.35;;;12.20;80.40;;;;;;5032120;28;20066;-60
2021/05/01 07:09:27;;;;;;;17.23;15.52;;;12.40;79.80;;;;;;5047362;28;20189;-62
2021/05/01 07:11:53;;;;;;;17.85;16.05;;;12.50;79.00;;;;;;5051664;28;20061;-60
2021/05/01 07:14:21;;;;;;;17.77;16.08;;;12.50;78.80;;;;;;5048956;28;20112;-61
2021/05/01 07:16:47;;;;;;;19.55;17.52;;;12.60;78.40;;;;;;5031512;28;20064;-61
2021/05/01 07:19:14;;;;;;;18.42;16.40;;;12.40;78.60;;;;;;5031151;28;20095;-59
2021/05/01 07:21:39;;;;;;;18.75;16.75;;;12.50;78.50;;;;;;5034799;28;20029;-62
2021/05/01 07:24:05;;;;;;;19.77;15.77;;;12.60;78.00;;;;;;5034568;28;20037;-61
2021/05/01 07:26:35;;;;;;;18.08;16.30;;;12.60;78.20;;;;;;5035227;28;20078;-61
2021/05/01 07:29:03;;;;;;;17.25;15.32;;;12.70;77.80;;;;;;5035190;28;20478;-61
2021/05/01 07:31:31;;;;;;;18.75;16.85;;;12.70;77.60;;;;;;5035184;28;20499;-60
2021/05/01 07:33:58;;;;;;;18.58;16.58;;;12.80;77.30;;;;;;5034197;28;20030;-61
2021/05/01 07:36:45;;;;;;;18.80;15.68;;;12.80;76.90;;;;;;5035402;28;20497;-60
2021/05/01 07:39:12;;;;;;;18.10;16.30;;;12.90;76.80;;;;;;5033504;28;20068;-60
2021/05/01 07:41:43;;;;;;;17.60;15.77;;;13.00;75.90;;;;;;5034436;28;20033;-60
2021/05/01 07:44:10;;;;;;;18.05;15.68;;;13.10;75.50;;;;;;5034857;28;20033;-62
2021/05/01 07:46:40;;;;;;;17.27;15.48;;;13.20;75.00;;;;;;5034747;28;20528;-60
2021/05/01 07:49:08;;;;;;;17.90;16.00;;;13.10;74.70;;;;;;5033973;28;20030;-59
2021/05/01 07:51:36;;;;;;;17.77;15.75;;;13.20;74.10;;;;;;5034336;28;20041;-60
2021/05/01 07:54:03;;;;;;;18.10;15.80;;;13.20;74.00;;;;;;5048221;28;20167;-61
2021/05/01 07:56:28;;;;;;;20.50;18.33;;;13.20;74.10;;;;;;5054623;28;20032;-60
2021/05/01 07:58:55;;;;;;;17.08;15.35;;;13.20;74.00;;;;;;5038015;28;20035;-57
2021/05/01 08:01:22;;;;;;;15.95;14.35;;;13.20;73.20;;;;;;5034785;28;20489;-61
2021/05/01 08:03:48;;;;;;;15.85;14.18;;;13.30;72.90;;;;;;5039552;28;20110;-61
2021/05/01 08:06:14;;;;;;;12.05;10.85;;;13.40;72.60;;;;;;5034505;28;20429;-61
2021/05/01 08:08:39;;;;;;;13.70;12.30;;;13.50;72.10;;;;;;5035886;28;20111;-62
2021/05/01 08:11:05;;;;;;;14.77;13.02;;;13.70;71.40;;;;;;5029038;28;20485;-61
2021/05/01 08:13:31;;;;;;;15.25;13.15;;;13.80;70.80;;;;;;5035838;28;20041;-62
2021/05/01 08:15:56;;;;;;;14.43;13.05;;;13.90;70.20;;;;;;5031972;28;20132;-60
2021/05/01 08:18:22;;;;;;;15.23;13.77;;;14.00;70.10;;;;;;5039401;28;20028;-62
2021/05/01 08:20:50;;;;;;;16.52;13.82;;;14.00;69.80;;;;;;5053643;28;20048;-64
2021/05/01 08:23:16;;;;;;;15.57;13.98;;;13.90;70.30;;;;;;5035130;28;20029;-59
2021/05/01 08:25:41;;;;;;;14.45;13.05;;;13.90;70.40;;;;;;5034207;28;20036;-60
2021/05/01 08:28:07;;;;;;;16.35;14.75;;;14.00;70.40;;;;;;5033552;28;20030;-60
2021/05/01 08:30:33;;;;;;;15.57;14.07;;;13.90;69.60;;;;;;5036203;28;20091;-62
2021/05/01 08:32:58;;;;;;;15.23;13.60;;;13.70;69.40;;;;;;5035511;28;20033;-61
2021/05/01 08:35:24;;;;;;;16.40;14.80;;;13.70;70.40;;;;;;5041906;28;20044;-60
2021/05/01 08:37:50;;;;;;;15.60;14.10;;;13.80;70.40;;;;;;5054625;28;20127;-61
2021/05/01 08:40:16;;;;;;;16.95;15.18;;;13.80;70.10;;;;;;5022921;28;20046;-62
2021/05/01 08:42:46;;;;;;;16.23;14.52;;;13.60;70.10;;;;;;5013856;28;20113;-62
2021/05/01 08:45:17;;;;;;;15.95;14.35;;;13.70;70.90;;;;;;5035020;28;20083;-62
2021/05/01 08:47:45;;;;;;;15.35;13.85;;;13.70;70.70;;;;;;5033736;28;20068;-59
2021/05/01 08:50:26;;;;;;;16.60;15.00;;;13.80;70.60;;;;;;5050474;28;20043;-60
2021/05/01 08:52:53;;;;;;;15.50;14.00;;;13.80;70.10;;;;;;5053603;28;20108;-60
2021/05/01 08:55:21;;;;;;;15.57;14.07;;;13.90;70.20;;;;;;5034554;28;20539;-61
2021/05/01 08:57:47;;;;;;;16.63;14.93;;;14.10;69.90;;;;;;5039439;28;20033;-63
2021/05/01 09:00:13;;;;;;;15.20;13.68;;;14.00;69.20;;;;;;5033194;28;20048;-58
2021/05/01 09:02:40;;;;;;;15.77;14.27;;;14.00;69.00;;;;;;5037645;28;20501;-61
2021/05/01 09:05:08;;;;;;;25.08;22.73;;;13.90;69.10;;;;;;5033541;28;20030;-57
2021/05/01 09:07:36;;;;;;;16.77;15.00;;;13.80;69.60;;;;;;5033002;28;20061;-62
2021/05/01 09:10:05;;;;;;;14.70;13.30;;;13.90;69.00;;;;;;5033996;28;20026;-60
2021/05/01 09:12:34;;;;;;;14.82;13.38;;;13.90;69.30;;;;;;5031903;28;20493;-62
2021/05/01 09:15:01;;;;;;;15.45;13.90;;;14.30;68.70;;;;;;5032445;28;20136;-61
2021/05/01 09:17:27;;;;;;;15.77;14.27;;;14.40;68.00;;;;;;5032354;28;20441;-62
2021/05/01 09:20:08;;;;;;;14.43;12.32;;;14.50;67.30;;;;;;5031878;28;20026;-62
2021/05/01 09:22:57;;;;;;;14.27;12.88;;;14.60;67.30;;;;;;5032533;28;20112;-60
2021/05/01 09:25:31;;;;;;;14.30;12.70;;;14.90;66.90;;;;;;5031873;28;20029;-61
2021/05/01 09:28:10;;;;;;;14.23;12.90;;;15.40;65.30;;;;;;5032850;28;20440;-60
2021/05/01 09:30:38;;;;;;;13.35;11.95;;;15.30;64.40;;;;;;5032441;28;20029;-63
2021/05/01 09:33:31;;;;;;;15.18;13.70;;;15.40;64.50;;;;;;5043380;28;20174;-59
2021/05/01 09:36:02;;;;;;;17.38;14.60;;;15.10;64.80;;;;;;5052694;28;20032;-61
2021/05/01 09:38:36;;;;;;;14.75;13.30;;;14.80;65.70;;;;;;5036691;28;20087;-61
2021/05/01 09:41:09;;;;;;;16.77;15.02;;;14.90;65.50;;;;;;5032879;28;20033;-60
2021/05/01 09:43:34;;;;;;;14.13;12.60;;;15.00;65.20;;;;;;5045619;28;20033;-61
2021/05/01 09:46:12;;;;;;;15.15;13.55;;;15.20;64.90;;;;;;5031031;28;20084;-60
2021/05/01 09:48:38;;;;;;;14.63;13.13;;;15.50;64.00;;;;;;5039803;28;20034;-61
2021/05/01 09:51:04;;;;;;;16.33;12.93;;;15.40;63.90;;;;;;5030415;28;20040;-63
2021/05/01 09:53:30;;;;;;;14.00;12.60;;;15.30;64.40;;;;;;5032621;28;20447;-62
2021/05/01 09:55:58;;;;;;;14.02;12.68;;;15.20;64.40;;;;;;5030406;28;20400;-62
2021/05/01 09:58:27;;;;;;;12.77;11.57;;;15.30;64.10;;;;;;5031682;28;20029;-62
2021/05/01 10:01:14;;;;;;;13.27;11.93;;;15.50;64.20;;;;;;5031139;28;20484;-60
2021/05/01 10:03:40;;;;;;;13.65;12.25;;;15.80;63.50;;;;;;5032535;28;20041;-61
2021/05/01 10:06:07;;;;;;;13.77;12.38;;;15.80;63.40;;;;;;5031399;28;20056;-61
2021/05/01 10:08:34;;;;;;;14.23;12.80;;;15.60;62.80;;;;;;5032570;28;20050;-62
2021/05/01 10:11:07;;;;;;;14.40;12.95;;;15.30;63.10;;;;;;5031337;28;20041;-61
2021/05/01 10:13:45;;;;;;;12.38;11.18;;;15.10;63.50;;;;;;5032156;28;20067;-61
2021/05/01 10:16:11;;;;;;;13.07;11.77;;;15.20;63.40;;;;;;5031298;28;20485;-62
2021/05/01 10:18:37;;;;;;;12.57;11.38;;;15.30;62.50;;;;;;5031081;28;20038;-61
2021/05/01 10:21:03;;;;;;;11.45;10.40;;;15.30;62.10;;;;;;5030639;28;20029;-62
2021/05/01 10:23:28;;;;;;;12.15;10.98;;;15.20;61.40;;;;;;5033803;28;20099;-61
2021/05/01 10:26:12;;;;;;;12.85;11.52;;;15.20;62.30;;;;;;5031531;28;20041;-61
2021/05/01 10:28:55;;;;;;;12.23;11.02;;;15.20;62.90;;;;;;5045311;28;20029;-61
2021/05/01 10:31:22;;;;;;;12.80;11.50;;;15.30;63.00;;;;;;5051961;28;20036;-62
2021/05/01 10:33:51;;;;;;;12.32;11.23;;;15.50;62.10;;;;;;5036556;28;20125;-63
2021/05/01 10:36:33;;;;;;;12.07;10.88;;;15.80;62.70;;;;;;5036383;28;20168;-62
2021/05/01 10:39:07;;;;;;;12.48;11.30;;;16.20;61.50;;;;;;5034812;28;20124;-60
2021/05/01 10:41:36;;;;;;;;;;;16.20;61.30;;;;;;5028633;28;20037;-62
2021/05/01 10:44:05;;;;;;;15.35;11.98;;;16.10;61.60;;;;;;5035436;28;19963;-63
2021/05/01 10:46:39;;;;;;;13.48;12.18;;;16.10;61.20;;;;;;5030741;28;20038;-62
2021/05/01 10:49:07;;;;;;;13.25;11.95;;;15.80;61.40;;;;;;5031525;28;20033;-61
2021/05/01 10:51:40;;;;;;;13.35;12.02;;;15.80;61.50;;;;;;5034029;28;20045;-62
2021/05/01 10:54:20;;;;;;;13.93;12.63;;;15.70;61.80;;;;;;5027382;28;20032;-61
2021/05/01 10:56:49;;;;;;;14.57;13.00;;;15.40;62.50;;;;;;5033423;28;20128;-62
2021/05/01 10:59:23;;;;;;;14.73;13.15;;;15.20;62.80;;;;;;5036822;28;20074;-62
2021/05/01 11:01:51;;;;;;;13.65;12.27;;;15.10;65.90;;;;;;5038483;28;20049;-59
2021/05/01 11:04:25;;;;;;;13.88;12.57;;;15.20;63.60;;;;;;5047322;28;20504;-59
2021/05/01 11:06:58;;;;;;;12.25;11.13;;;15.40;62.60;;;;;;5033461;28;20044;-61
2021/05/01 11:09:43;;;;;;;12.68;11.45;;;15.50;62.50;;;;;;5042058;28;20120;-61
2021/05/01 11:12:11;;;;;;;14.20;12.88;;;15.50;62.50;;;;;;5044348;28;20116;-62
2021/05/01 11:14:46;;;;;;;12.57;11.38;;;15.70;62.50;;;;;;5051058;28;20041;-62
2021/05/01 11:17:23;;;;;;;15.05;13.55;;;15.90;62.00;;;;;;5036233;28;20033;-62
2021/05/01 11:19:57;;;;;;;13.10;11.80;;;16.10;61.50;;;;;;5035059;28;20041;-63
2021/05/01 11:22:26;;;;;;;13.23;12.02;;;16.20;61.00;;;;;;5048049;28;20043;-63
2021/05/01 11:24:52;;;;;;;12.80;11.50;;;16.20;60.20;;;;;;5047315;28;20048;-62
2021/05/01 11:27:18;;;;;;;12.38;11.18;;;16.50;60.50;;;;;;5033899;28;20057;-62
2021/05/01 11:29:46;;;;;;;12.40;11.10;;;16.70;60.20;;;;;;5037208;28;20037;-62
2021/05/01 11:32:12;;;;;;;13.25;11.95;;;17.10;59.60;;;;;;5035528;28;20108;-62
2021/05/01 11:34:38;;;;;;;13.20;12.00;;;17.00;58.90;;;;;;5035516;28;20025;-60
2021/05/01 11:37:07;;;;;;;11.63;10.52;;;16.80;58.90;;;;;;5035469;28;20054;-61
2021/05/01 11:39:38;;;;;;;14.30;12.80;;;16.80;59.30;;;;;;5038903;28;20369;-61
2021/05/01 11:42:04;;;;;;;14.05;12.65;;;16.90;58.90;;;;;;5053710;28;20033;-63
2021/05/01 11:44:30;;;;;;;12.65;11.45;;;16.90;59.10;;;;;;5048883;28;20039;-61
2021/05/01 11:47:14;;;;;;;12.88;11.73;;;16.80;59.20;;;;;;5054428;28;20068;-60
2021/05/01 11:49:40;;;;;;;12.60;11.40;;;16.50;59.40;;;;;;5050449;28;20043;-62
2021/05/01 11:52:41;;;;;;;12.55;11.38;;;16.40;59.10;;;;;;5035579;28;20473;-62
2021/05/01 11:55:31;;;;;;;12.95;11.65;;;16.70;58.90;;;;;;5045442;28;20068;-61
2021/05/01 11:58:02;;;;;;;14.00;12.60;;;16.90;58.50;;;;;;5048960;28;20030;-62
2021/05/01 12:00:39;;;;;;;13.25;11.35;;;17.00;58.50;;;;;;5038934;28;20065;-61
2021/05/01 12:03:20;;;;;;;12.60;11.30;;;17.20;57.80;;;;;;5035794;28;20029;-62
2021/05/01 12:05:52;;;;;;;13.23;11.32;;;17.10;57.60;;;;;;5049919;28;20025;-62
2021/05/01 12:08:21;;;;;;;11.50;10.40;;;17.00;57.40;;;;;;5055520;28;20058;-61
2021/05/01 12:10:54;;;;;;;11.38;10.38;;;16.90;57.90;;;;;;5020500;28;20034;-63
2021/05/01 12:13:24;;;;;;;12.65;11.45;;;16.60;57.80;;;;;;5016974;28;20298;-62
2021/05/01 12:15:54;;;;;;;13.15;11.70;;;16.70;58.30;;;;;;5034467;28;20041;-62
2021/05/01 12:18:20;;;;;;;12.10;10.82;;;16.60;59.50;;;;;;5049750;28;20391;-62
2021/05/01 12:20:52;;;;;;;12.43;11.27;;;16.70;58.60;;;;;;5054703;28;20053;-62
2021/05/01 12:23:39;;;;;;;11.25;10.25;;;16.60;58.80;;;;;;5045162;28;20017;-63
2021/05/01 12:26:05;;;;;;;10.77;9.82;;;16.50;58.00;;;;;;5039060;28;20051;-62
2021/05/01 12:28:39;;;;;;;11.98;10.77;;;16.70;57.90;;;;;;5034149;28;20536;-60
2021/05/01 12:31:05;;;;;;;;;;;16.70;57.40;;;;;;5050675;28;20037;-60
2021/05/01 12:33:31;;;;;;;9.50;8.60;;;16.80;56.80;;;;;;5054539;28;19915;-60